Annamoriah, WV

2:53 AM EDT on March 27, 2017 (GMT -0400)
Deerfield | | Change Station

Elev 950 ft 38.82 °N, 81.38 °W | Updated 3 minutes ago

Overcast
Overcast
58.2 °F
Feels Like 58.2 °F
N
1.0
Wind Variable Wind from SSW
Gusts 3.0 mph

Today
High -- | Low -- °F
--% Chance of Precip.
Yesterday
High -- | Low -- °F
Precip. -- in
Pressure 30.00 in
Visibility 10.0 miles
Clouds Few 800 ft
Mostly Cloudy 2200 ft
Overcast 3200 ft
Dew Point 56 °F
Humidity 93%
Rainfall 0.00 in
Snow Depth Not available.
7:16 AM 7:43 PM
Waning Crescent, 1% visible
SPECI KPKB 270608Z AUTO 28006KT 10SM FEW008 BKN022 OVC032 14/13 A3000 RMK AO2 T01390128
Pressure 30.00 in
Visibility 10.0 miles
Clouds Few 800 ft
Mostly Cloudy 2200 ft
Overcast 3200 ft
Dew Point 56 °F
Humidity 93%
Rainfall 0.00 in
Snow Depth Not available.
7:16 AM 7:43 PM
Waning Crescent, 1% visible
SPECI KPKB 270608Z AUTO 28006KT 10SM FEW008 BKN022 OVC032 14/13 A3000 RMK AO2 T01390128

Get Severe Weather Alerts

Thanks for signing up!

Be on the lookout for a verification email in your inbox.

You'll start receiving the daily forecast at 8 AM.

×

10-Day Weather Forecast

Almanac

Astronomy

Mar. 27, 2017 Rise Set
Actual Time
Civil Twilight
Nautical Twilight
Astronomical Twilight
Moon
Length of Visible Light
Length of Day
Tomorrow will be .
, % of the Moon is Illuminated

Today's Extremes

State Highs State Lows

Community

WunderPhotos

Upload Photos

1,962,540 photos uploaded!

WunderBlog® & News

Nearby

Air Quality

  Air Quality AQ Index Pollutant
Not available.

Snow Depth

Station Depth Elevation

Earthquake Activity

City Distance Mag. Time & Date
Minimum magnitude displayed is 2.5.

Earthquake Activity

City Distance Mag. Time & Date
Minimum magnitude displayed is 2.5.

Coastal Water Temperatures

Place Temperature

Stations

Nearby Weather Stations

Station Location Temp. Windchill Dew Point Humidity Wind Precip. Elev Updated Type
                   

Watches & Warnings

There are currently no watches in effect.